createdAt,value
2023-05-05T00:01:23.047Z,11.1
2023-05-05T00:04:22.763Z,11.040000000000001
2023-05-05T00:07:19.199Z,8.559999999999999
2023-05-05T00:10:14.728Z,11.620000000000001
2023-05-05T00:13:11.455Z,8.36
2023-05-05T00:16:07.854Z,8.84
2023-05-05T00:19:06.410Z,6.56
2023-05-05T00:22:03.013Z,10.739999999999998
2023-05-05T00:24:58.511Z,10.3
2023-05-05T00:27:54.069Z,9.34
2023-05-05T00:30:50.729Z,6.540000000000001
2023-05-05T00:33:46.265Z,4.48
2023-05-05T00:36:41.762Z,5.5200000000000005
2023-05-05T00:39:37.311Z,3.9
2023-05-05T00:42:37.872Z,3.94
2023-05-05T00:45:33.449Z,4.9
2023-05-05T00:48:32.003Z,5.76
2023-05-05T00:51:28.581Z,4.38
2023-05-05T00:54:26.105Z,3.72
2023-05-05T00:57:23.685Z,4.4399999999999995
2023-05-05T01:00:23.212Z,5.500000000000001
2023-05-05T01:03:18.910Z,4.86
2023-05-05T01:06:26.308Z,3.8800000000000003
2023-05-05T01:09:32.851Z,4.499999999999999
2023-05-05T01:12:37.434Z,4.62
2023-05-05T01:15:41.954Z,4.699999999999999
2023-05-05T01:18:45.422Z,6.08
2023-05-05T01:21:47.016Z,6.359999999999999
2023-05-05T01:24:54.556Z,6.06
2023-05-05T01:28:03.089Z,4.76
2023-05-05T01:31:14.622Z,6.4799999999999995
2023-05-05T01:34:17.138Z,4.819999999999999
2023-05-05T01:37:18.658Z,5.86
2023-05-05T01:40:16.254Z,6.62
2023-05-05T01:43:17.804Z,4.9399999999999995
2023-05-05T01:46:16.484Z,4.540000000000001
2023-05-05T01:49:13.893Z,5.34
2023-05-05T01:52:11.481Z,4.8
2023-05-05T01:55:08.030Z,5.279999999999999
2023-05-05T01:58:05.568Z,5.459999999999999
2023-05-05T02:01:02.274Z,5.36
2023-05-05T02:04:01.824Z,5.6
2023-05-05T02:07:01.231Z,5.4799999999999995
2023-05-05T02:09:59.795Z,5.36
2023-05-05T02:12:56.439Z,6.58
2023-05-05T02:15:53.910Z,5.18
2023-05-05T02:18:51.459Z,5.26
2023-05-05T02:21:48.979Z,5.340000000000001
2023-05-05T02:24:44.575Z,5.32
2023-05-05T02:27:44.126Z,5.279999999999999
2023-05-05T02:30:43.797Z,7.859999999999999
2023-05-05T02:33:43.257Z,10.14
2023-05-05T02:36:44.798Z,7.2
2023-05-05T02:39:51.330Z,9.02
2023-05-05T02:42:52.903Z,7.82
2023-05-05T02:45:50.430Z,6.06
2023-05-05T02:48:46.007Z,6.3
2023-05-05T02:51:41.530Z,5.7
2023-05-05T02:54:37.128Z,6.58
2023-05-05T02:57:36.657Z,6.74
2023-05-05T03:00:41.194Z,6.36
2023-05-05T03:03:49.920Z,9.16
2023-05-05T03:06:51.295Z,10.120000000000001
2023-05-05T03:09:54.820Z,8.940000000000001
2023-05-05T03:12:54.354Z,8.059999999999999
2023-05-05T03:15:52.917Z,11.24
2023-05-05T03:18:50.443Z,8.780000000000001
2023-05-05T03:21:48.032Z,9.440000000000001
2023-05-05T03:24:49.644Z,7.720000000000001
2023-05-05T03:27:45.129Z,7.840000000000001
2023-05-05T03:30:42.701Z,6.76
2023-05-05T03:33:39.247Z,6.5
2023-05-05T03:36:35.838Z,7.659999999999999
2023-05-05T03:39:31.361Z,6.720000000000001
2023-05-05T03:42:26.902Z,7.0200000000000005
2023-05-05T03:45:24.490Z,7.640000000000001
2023-05-05T03:48:20.048Z,8.360000000000001
2023-05-05T03:51:16.615Z,9.82
2023-05-05T03:54:13.216Z,6.640000000000001
2023-05-05T03:57:08.733Z,7.460000000000001
2023-05-05T04:00:05.386Z,8.819999999999999
2023-05-05T04:03:00.998Z,6.62
2023-05-05T04:05:56.421Z,6.12
2023-05-05T04:08:51.943Z,6.18
2023-05-05T04:11:47.518Z,5.659999999999999
2023-05-05T04:14:43.134Z,6.5
2023-05-05T04:17:38.727Z,8.239999999999998
2023-05-05T04:20:36.221Z,9.379999999999999
2023-05-05T04:23:32.057Z,10.84
2023-05-05T04:26:27.345Z,11.48
2023-05-05T04:29:22.926Z,11.4
2023-05-05T04:32:18.457Z,12.260000000000002
2023-05-05T04:35:14.046Z,13.199999999999998
2023-05-05T04:38:09.557Z,8.3
2023-05-05T04:41:06.176Z,7.94
2023-05-05T04:44:01.765Z,5.859999999999999
2023-05-05T04:46:57.538Z,5.68
2023-05-05T04:49:53.819Z,6.6
2023-05-05T04:52:51.415Z,7.5
2023-05-05T04:55:47.956Z,6.720000000000001
2023-05-05T04:58:43.502Z,7.12
2023-05-05T05:01:39.143Z,6.659999999999999
2023-05-05T05:04:34.642Z,7.3
2023-05-05T05:07:31.217Z,7.139999999999999
2023-05-05T05:10:27.750Z,8.360000000000001
2023-05-05T05:13:23.332Z,7.380000000000001
2023-05-05T05:16:18.922Z,6.960000000000001
2023-05-05T05:19:14.488Z,7.76
2023-05-05T05:22:09.980Z,9.02
2023-05-05T05:25:06.567Z,7.540000000000001
2023-05-05T05:28:10.138Z,9.379999999999999
2023-05-05T05:31:02.653Z,8.06
2023-05-05T05:33:58.207Z,10.959999999999999
2023-05-05T05:36:53.739Z,7.68
2023-05-05T05:39:52.354Z,8.4
2023-05-05T05:42:47.890Z,9.9
2023-05-05T05:45:43.503Z,10.8
2023-05-05T05:48:39.085Z,10.559999999999999
2023-05-05T05:51:34.610Z,10.2
2023-05-05T05:54:34.142Z,10.3
2023-05-05T05:57:30.733Z,9.580000000000002
2023-05-05T06:00:27.263Z,11
2023-05-05T06:03:23.104Z,9
2023-05-05T06:06:18.430Z,11.040000000000001
2023-05-05T06:09:13.945Z,12.22
2023-05-05T06:12:09.535Z,10.34
2023-05-05T06:15:06.046Z,9.26
2023-05-05T06:18:01.676Z,10.540000000000001
2023-05-05T06:20:57.175Z,13.559999999999999
2023-05-05T06:23:53.751Z,12.24
2023-05-05T06:26:49.285Z,12.419999999999998
2023-05-05T06:29:44.872Z,12.18
2023-05-05T06:32:40.476Z,12.680000000000001
2023-05-05T06:35:35.989Z,9.86
2023-05-05T06:38:32.526Z,13.1
2023-05-05T06:41:30.109Z,11.139999999999999
2023-05-05T06:44:25.677Z,13.280000000000001
2023-05-05T06:47:22.218Z,13.219999999999999
2023-05-05T06:50:17.788Z,13.559999999999999
2023-05-05T06:53:13.340Z,12.34
2023-05-05T06:56:08.863Z,11.540000000000001
2023-05-05T06:59:04.452Z,13.940000000000001
2023-05-05T07:02:00.037Z,11.5
2023-05-05T07:04:55.683Z,10.22
2023-05-05T07:07:52.181Z,13.920000000000002
2023-05-05T07:10:47.761Z,11.3
2023-05-05T07:13:43.258Z,11.78
2023-05-05T07:16:38.887Z,12.46
2023-05-05T07:19:37.395Z,10.720000000000002
2023-05-05T07:22:32.920Z,9.5
2023-05-05T07:25:28.536Z,11.7
2023-05-05T07:28:24.101Z,11.48
2023-05-05T07:31:21.632Z,11.040000000000001
2023-05-05T07:34:17.166Z,14.1
2023-05-05T07:37:13.745Z,10.059999999999999
2023-05-05T07:40:10.678Z,9.8
2023-05-05T07:43:05.882Z,9.7
2023-05-05T07:46:01.498Z,12.680000000000001
2023-05-05T07:48:57.993Z,8.64
2023-05-05T07:51:55.529Z,9.78
2023-05-05T07:54:51.100Z,9.059999999999999
2023-05-05T07:57:47.677Z,9.379999999999999
2023-05-05T08:00:45.226Z,8.7
2023-05-05T08:03:40.898Z,7.44
2023-05-05T08:06:39.348Z,11.06
2023-05-05T08:09:35.902Z,10.580000000000002
2023-05-05T08:12:32.473Z,8.66
2023-05-05T08:15:28.030Z,12.06
2023-05-05T08:18:24.634Z,12.6
2023-05-05T08:21:21.153Z,10.540000000000001
2023-05-05T08:24:16.702Z,9.92
2023-05-05T08:27:13.274Z,9.320000000000002
2023-05-05T08:30:09.859Z,9.04
2023-05-05T08:33:05.430Z,8.86
2023-05-05T08:36:00.944Z,11.9
2023-05-05T08:38:56.529Z,8.540000000000001
2023-05-05T08:41:53.021Z,9.620000000000001
2023-05-05T08:44:48.632Z,10.34
2023-05-05T08:47:47.176Z,9.7
2023-05-05T08:50:47.713Z,9.580000000000002
2023-05-05T08:53:52.240Z,9.4
2023-05-05T08:56:50.868Z,12.18
2023-05-05T08:59:48.335Z,10.66
2023-05-05T09:02:47.048Z,10.54
2023-05-05T09:05:43.484Z,10.54
2023-05-05T09:08:41.050Z,9.5
2023-05-05T09:11:37.613Z,9.68
2023-05-05T09:14:33.205Z,7.4799999999999995
2023-05-05T09:17:29.728Z,8.48
2023-05-05T09:20:34.246Z,8.620000000000001
2023-05-05T09:23:29.804Z,9.139999999999999
2023-05-05T09:26:32.389Z,8.28
2023-05-05T09:29:28.919Z,9.18
2023-05-05T09:32:47.518Z,9.379999999999999
2023-05-05T09:35:48.984Z,9.8
2023-05-05T09:38:52.520Z,9.16
2023-05-05T09:41:53.078Z,9.42
2023-05-05T09:44:48.645Z,7.24
2023-05-05T09:47:46.271Z,10.6
2023-05-05T09:50:43.849Z,8.12
2023-05-05T09:53:42.349Z,8.92
2023-05-05T09:56:39.873Z,10.620000000000001
2023-05-05T09:59:47.380Z,8.78
2023-05-05T10:02:47.973Z,8.720000000000002
2023-05-05T10:05:50.605Z,10.74
2023-05-05T10:08:51.040Z,8.459999999999999
2023-05-05T10:11:47.567Z,6.24
2023-05-05T10:14:50.068Z,6.279999999999999
2023-05-05T10:17:54.277Z,8.1
2023-05-05T10:20:55.194Z,7.7
2023-05-05T10:23:57.798Z,8.3
2023-05-05T10:26:57.338Z,6.040000000000001
2023-05-05T10:30:02.810Z,8.120000000000001
2023-05-05T10:33:22.211Z,6.92
2023-05-05T10:36:08.927Z,7.640000000000001
2023-05-05T10:39:09.538Z,6.860000000000001
2023-05-05T10:42:06.053Z,6.459999999999999
2023-05-05T10:45:04.578Z,8.540000000000001
2023-05-05T10:48:04.234Z,8
2023-05-05T10:51:11.698Z,6.06
2023-05-05T10:54:16.214Z,7.919999999999999
2023-05-05T10:57:14.789Z,7.58
2023-05-05T11:00:18.310Z,8.200000000000001
2023-05-05T11:03:19.948Z,6.160000000000001
2023-05-05T11:06:20.422Z,7.640000000000001
2023-05-05T11:09:20.958Z,7.6
2023-05-05T11:12:27.498Z,6.8
2023-05-05T11:15:37.022Z,5.82
2023-05-05T11:18:35.592Z,7.879999999999998
2023-05-05T11:21:44.915Z,6.860000000000001
2023-05-05T11:24:46.675Z,5.46
2023-05-05T11:27:54.192Z,6.5200000000000005
2023-05-05T11:31:00.778Z,6.44
2023-05-05T11:34:07.265Z,5.9
2023-05-05T11:37:11.767Z,5.2
2023-05-05T11:40:19.340Z,5.040000000000001
2023-05-05T11:43:18.854Z,4.76
2023-05-05T11:46:16.473Z,5.1
2023-05-05T11:49:23.973Z,5.56
2023-05-05T11:52:27.544Z,7.639999999999999
2023-05-05T11:55:23.058Z,5.82
2023-05-05T11:58:18.650Z,7.24
2023-05-05T12:01:14.188Z,4.720000000000001
2023-05-05T12:04:11.912Z,7
2023-05-05T12:07:07.276Z,6.4
2023-05-05T12:10:02.856Z,4.82
2023-05-05T12:13:11.475Z,4.22
2023-05-05T12:16:08.978Z,5.9
2023-05-05T12:19:05.515Z,5.239999999999999
2023-05-05T12:22:01.074Z,5.5600000000000005
2023-05-05T12:24:57.628Z,3.72
2023-05-05T12:27:54.137Z,24.439999999999998
2023-05-05T12:30:56.788Z,4.2
2023-05-05T12:33:53.301Z,3.8600000000000003
2023-05-05T12:36:49.805Z,4.7
2023-05-05T12:39:45.375Z,6.92
2023-05-05T12:42:40.962Z,4.76
2023-05-05T12:45:37.556Z,4.24
2023-05-05T12:48:34.099Z,5.08
2023-05-05T12:51:35.654Z,4.4399999999999995
2023-05-05T12:54:40.200Z,4.9399999999999995
2023-05-05T12:57:46.714Z,5.9
2023-05-05T13:00:46.296Z,4.18
2023-05-05T13:03:46.819Z,6.5
2023-05-05T13:06:58.338Z,3.78
2023-05-05T13:10:00.892Z,5.2
2023-05-05T13:12:57.483Z,4.040000000000001
2023-05-05T13:15:53.048Z,4.32
2023-05-05T13:18:49.576Z,5.16
2023-05-05T13:21:45.102Z,4.46
2023-05-05T13:24:50.988Z,5.32
2023-05-05T13:27:41.245Z,3.8600000000000003
2023-05-05T13:30:37.782Z,4.4399999999999995
2023-05-05T13:33:35.372Z,4.68
2023-05-05T13:36:30.914Z,3.7600000000000002
2023-05-05T13:39:26.445Z,5.54
2023-05-05T13:42:22.047Z,3.8199999999999994
2023-05-05T13:45:19.581Z,4.52
2023-05-05T13:48:16.138Z,6.319999999999999
2023-05-05T13:51:11.749Z,4.04
2023-05-05T13:54:07.286Z,5.46
2023-05-05T13:57:02.824Z,4.52
2023-05-05T13:59:58.401Z,3.94
2023-05-05T14:02:54.974Z,5.279999999999999
2023-05-05T14:05:51.536Z,6.08
2023-05-05T14:08:47.065Z,5.76
2023-05-05T14:11:42.656Z,4.64
2023-05-05T14:14:38.196Z,3.44
2023-05-05T14:17:33.774Z,3.4
2023-05-05T14:20:29.384Z,3.5
2023-05-05T14:23:25.889Z,4.040000000000001
2023-05-05T14:26:21.466Z,5.16
2023-05-05T14:29:18.048Z,4.52
2023-05-05T14:32:13.652Z,5.720000000000001
2023-05-05T14:35:09.263Z,4.32
2023-05-05T14:38:04.744Z,3.9599999999999995
2023-05-05T14:41:02.224Z,3.9799999999999995
2023-05-05T14:43:58.804Z,5.159999999999999
2023-05-05T14:46:54.367Z,5.5200000000000005
2023-05-05T14:49:50.947Z,6.42
2023-05-05T14:52:47.466Z,4.08
2023-05-05T14:55:44.051Z,6.44
2023-05-05T14:58:39.614Z,74.82000000000001
2023-05-05T15:01:36.229Z,278.34000000000003
2023-05-05T15:04:31.724Z,56.6
2023-05-05T15:07:29.278Z,13.1
2023-05-05T15:10:25.833Z,11.559999999999999
2023-05-05T15:13:22.444Z,7.780000000000001
2023-05-05T15:16:17.980Z,9
2023-05-05T15:19:13.481Z,6.0200000000000005
2023-05-05T15:22:09.047Z,4.74
2023-05-05T15:25:08.987Z,5.12
2023-05-05T15:28:05.201Z,4.58
2023-05-05T15:31:01.791Z,5.6
2023-05-05T15:33:57.305Z,4.380000000000001
2023-05-05T15:36:56.868Z,3.8199999999999994
2023-05-05T15:39:54.406Z,6.14
2023-05-05T15:42:50.998Z,5.540000000000001
2023-05-05T15:45:46.578Z,5.5600000000000005
2023-05-05T15:48:42.108Z,4.58
2023-05-05T15:51:37.830Z,4.7
2023-05-05T15:54:33.244Z,5.459999999999999
2023-05-05T15:57:28.798Z,4.42
2023-05-05T16:00:25.350Z,5.8
2023-05-05T16:03:20.973Z,6.540000000000001
2023-05-05T16:06:16.477Z,3.8400000000000007
2023-05-05T16:09:12.010Z,4.859999999999999
2023-05-05T16:12:08.568Z,4.7
2023-05-05T16:15:05.144Z,4.38
2023-05-05T16:18:00.718Z,3.8
2023-05-05T16:20:56.276Z,3.88
2023-05-05T16:23:51.835Z,4.08
2023-05-05T16:26:48.355Z,6.040000000000001
2023-05-05T16:29:43.962Z,4.860000000000001
2023-05-05T16:32:39.518Z,4.340000000000001
2023-05-05T16:35:36.107Z,5.46
2023-05-05T16:38:31.627Z,5.2
2023-05-05T16:41:28.222Z,4.38
2023-05-05T16:44:28.775Z,5.24
2023-05-05T16:47:25.377Z,5.78
2023-05-05T16:50:20.842Z,5.6
2023-05-05T16:53:16.418Z,5.46
2023-05-05T16:56:12.967Z,5.380000000000001
2023-05-05T16:59:08.583Z,3.6399999999999997
2023-05-05T17:02:06.112Z,4.42
2023-05-05T17:05:01.694Z,6.88
2023-05-05T17:07:57.235Z,5.279999999999999
2023-05-05T17:10:52.796Z,6.720000000000001
2023-05-05T17:13:48.293Z,18.22
2023-05-05T17:16:43.915Z,26.78
2023-05-05T17:19:39.497Z,35.9
2023-05-05T17:22:36.045Z,33.12
2023-05-05T17:25:31.607Z,24.48
2023-05-05T17:28:27.144Z,22.86
2023-05-05T17:31:22.778Z,16.96
2023-05-05T17:34:18.297Z,13.979999999999999
2023-05-05T17:37:13.861Z,11.220000000000002
2023-05-05T17:40:10.424Z,10.54
2023-05-05T17:43:06.959Z,9.36
2023-05-05T17:46:02.636Z,9.74
2023-05-05T17:48:58.114Z,8.860000000000001
2023-05-05T17:51:53.598Z,14.1
2023-05-05T17:54:50.236Z,13.52
2023-05-05T17:57:46.734Z,10.6
2023-05-05T18:00:42.326Z,11.98
2023-05-05T18:03:40.679Z,11.139999999999999
2023-05-05T18:06:36.408Z,13.319999999999999
2023-05-05T18:09:32.017Z,9.440000000000001
2023-05-05T18:12:27.511Z,14.8
2023-05-05T18:15:23.097Z,10.2
2023-05-05T18:18:18.709Z,10.36
2023-05-05T18:21:15.242Z,16.979999999999997
2023-05-05T18:24:19.490Z,28.380000000000003
2023-05-05T18:27:12.349Z,37.32000000000001
2023-05-05T18:30:08.908Z,40.66
2023-05-05T18:33:04.560Z,29.4
2023-05-05T18:36:01.075Z,35.14
2023-05-05T18:38:56.572Z,31.959999999999997
2023-05-05T18:41:53.149Z,30.279999999999994
2023-05-05T18:44:49.712Z,39.2
2023-05-05T18:47:45.336Z,63.82000000000001
2023-05-05T18:50:41.828Z,92.06
2023-05-05T18:53:37.395Z,123.74000000000001
2023-05-05T18:56:32.979Z,96.14
2023-05-05T18:59:28.486Z,73.35999999999999
2023-05-05T19:02:24.065Z,69.28
2023-05-05T19:05:20.656Z,60.5
2023-05-05T19:08:16.202Z,77.53999999999999
2023-05-05T19:11:14.804Z,65.52000000000001
2023-05-05T19:14:11.278Z,79.06
2023-05-05T19:17:06.943Z,62.96
2023-05-05T19:20:02.391Z,44.52
2023-05-05T19:23:02.979Z,45.059999999999995
2023-05-05T19:25:58.545Z,36.7
2023-05-05T19:28:55.117Z,31.48
2023-05-05T19:31:50.873Z,27.579999999999995
2023-05-05T19:34:46.232Z,30.380000000000003
2023-05-05T19:37:41.797Z,29.759999999999998
2023-05-05T19:40:38.303Z,26.559999999999995
2023-05-05T19:43:33.905Z,24.46
2023-05-05T19:46:29.575Z,23.880000000000003
2023-05-05T19:49:25.003Z,31.619999999999997
2023-05-05T19:52:22.684Z,27.9
2023-05-05T19:55:18.159Z,29.28
2023-05-05T19:58:13.704Z,24
2023-05-05T20:01:09.342Z,17.12
2023-05-05T20:04:04.802Z,16.439999999999998
2023-05-05T20:07:00.380Z,17.1
2023-05-05T20:09:56.178Z,22.32
2023-05-05T20:12:53.575Z,24.380000000000003
2023-05-05T20:15:51.069Z,22.94
2023-05-05T20:18:46.666Z,22.3
2023-05-05T20:21:42.199Z,22.7
2023-05-05T20:24:38.786Z,24.4
2023-05-05T20:27:36.016Z,20.279999999999998
2023-05-05T20:30:32.863Z,18.6
2023-05-05T20:33:29.457Z,17.9
2023-05-05T20:36:26.009Z,22.499999999999996
2023-05-05T20:39:23.510Z,21.82
2023-05-05T20:42:19.121Z,25.48
2023-05-05T20:45:15.685Z,24.959999999999997
2023-05-05T20:48:11.630Z,20.880000000000003
2023-05-05T20:51:08.787Z,22.860000000000003
2023-05-05T20:54:05.417Z,16.68
2023-05-05T20:57:02.921Z,16.119999999999997
2023-05-05T20:59:59.460Z,15.38
2023-05-05T21:02:57.261Z,15.020000000000001
2023-05-05T21:05:52.632Z,15.319999999999999
2023-05-05T21:08:48.155Z,18.24
2023-05-05T21:11:43.684Z,20.52
2023-05-05T21:14:42.228Z,21.46
2023-05-05T21:17:37.844Z,25.360000000000003
2023-05-05T21:20:35.396Z,22.06
2023-05-05T21:23:30.942Z,23.72
2023-05-05T21:26:26.528Z,23.140000000000004
2023-05-05T21:29:24.065Z,26.1
2023-05-05T21:32:19.731Z,23.98
2023-05-05T21:35:15.186Z,26.080000000000002
2023-05-05T21:38:11.750Z,26.5
2023-05-05T21:41:07.304Z,24.9
2023-05-05T21:44:02.858Z,26.380000000000003
2023-05-05T21:46:59.437Z,26.560000000000002
2023-05-05T21:49:54.992Z,29.859999999999996
2023-05-05T21:52:51.514Z,29.4
2023-05-05T21:55:48.067Z,28.139999999999997
2023-05-05T21:58:44.638Z,24.279999999999998
2023-05-05T22:01:40.330Z,28.740000000000002
2023-05-05T22:04:35.776Z,27.160000000000004
2023-05-05T22:07:33.054Z,26.24
2023-05-05T22:10:28.930Z,24.68
2023-05-05T22:13:24.485Z,21.8
2023-05-05T22:16:21.089Z,24.02
2023-05-05T22:19:17.583Z,27.52
2023-05-05T22:22:13.122Z,25.56
2023-05-05T22:25:09.897Z,21.880000000000003
2023-05-05T22:28:05.269Z,23.44
2023-05-05T22:31:01.803Z,24.5
2023-05-05T22:33:58.390Z,24.259999999999998
2023-05-05T22:36:55.963Z,22.339999999999996
2023-05-05T22:39:52.485Z,22.28
2023-05-05T22:42:48.033Z,20.48
2023-05-05T22:45:45.629Z,20.82
2023-05-05T22:48:41.149Z,20.52
2023-05-05T22:51:37.753Z,20.759999999999998
2023-05-05T22:54:33.289Z,17.799999999999997
2023-05-05T22:57:28.842Z,18.5
2023-05-05T23:00:25.441Z,16.24
2023-05-05T23:03:20.969Z,17.020000000000003
2023-05-05T23:06:16.529Z,17.339999999999996
2023-05-05T23:09:13.099Z,15.84
2023-05-05T23:12:08.637Z,16.3
2023-05-05T23:15:05.276Z,14.66
2023-05-05T23:18:00.821Z,15.1
2023-05-05T23:20:56.354Z,14.48
2023-05-05T23:23:51.932Z,12.28
2023-05-05T23:26:47.477Z,14.960000000000003
2023-05-05T23:29:43.026Z,14.64
2023-05-05T23:32:38.571Z,15.440000000000001
2023-05-05T23:35:34.100Z,15.180000000000001
2023-05-05T23:38:29.714Z,13.440000000000001
2023-05-05T23:41:25.273Z,14.8
2023-05-05T23:44:20.823Z,18.18
2023-05-05T23:47:16.407Z,18.9
2023-05-05T23:50:11.952Z,17.54
2023-05-05T23:53:07.553Z,19.259999999999998
2023-05-05T23:56:03.030Z,17.6
2023-05-05T23:58:58.610Z,14.059999999999999
